sensor_id;sensor_type;location;lat;lon;timestamp;temperature;humidity
5192;DHT22;2615;44.524;11.284;2022-08-21T00:01:03;25.60;51.70
5192;DHT22;2615;44.524;11.284;2022-08-21T00:03:33;25.60;51.80
5192;DHT22;2615;44.524;11.284;2022-08-21T00:06:02;25.50;51.70
5192;DHT22;2615;44.524;11.284;2022-08-21T00:08:32;25.50;51.80
5192;DHT22;2615;44.524;11.284;2022-08-21T00:11:01;25.50;51.90
5192;DHT22;2615;44.524;11.284;2022-08-21T00:13:29;25.50;51.90
5192;DHT22;2615;44.524;11.284;2022-08-21T00:15:57;25.50;51.90
5192;DHT22;2615;44.524;11.284;2022-08-21T00:18:26;25.40;52.50
5192;DHT22;2615;44.524;11.284;2022-08-21T00:20:54;25.40;52.00
5192;DHT22;2615;44.524;11.284;2022-08-21T00:23:22;25.40;52.00
5192;DHT22;2615;44.524;11.284;2022-08-21T00:25:52;25.40;52.00
5192;DHT22;2615;44.524;11.284;2022-08-21T00:28:20;25.40;52.10
5192;DHT22;2615;44.524;11.284;2022-08-21T00:30:48;25.40;52.10
5192;DHT22;2615;44.524;11.284;2022-08-21T00:33:17;25.40;52.10
5192;DHT22;2615;44.524;11.284;2022-08-21T00:35:45;25.40;52.00
5192;DHT22;2615;44.524;11.284;2022-08-21T00:38:13;25.30;52.10
5192;DHT22;2615;44.524;11.284;2022-08-21T00:40:45;25.30;52.20
5192;DHT22;2615;44.524;11.284;2022-08-21T00:43:18;25.30;52.20
5192;DHT22;2615;44.524;11.284;2022-08-21T00:45:47;25.30;52.20
5192;DHT22;2615;44.524;11.284;2022-08-21T00:48:15;25.30;52.20
5192;DHT22;2615;44.524;11.284;2022-08-21T00:50:49;25.30;52.30
5192;DHT22;2615;44.524;11.284;2022-08-21T00:53:18;25.20;52.20
5192;DHT22;2615;44.524;11.284;2022-08-21T00:55:47;25.20;52.30
5192;DHT22;2615;44.524;11.284;2022-08-21T00:58:17;25.30;52.40
5192;DHT22;2615;44.524;11.284;2022-08-21T01:00:47;25.30;52.30
5192;DHT22;2615;44.524;11.284;2022-08-21T01:03:18;25.30;52.30
5192;DHT22;2615;44.524;11.284;2022-08-21T01:05:50;25.20;52.20
5192;DHT22;2615;44.524;11.284;2022-08-21T01:08:19;25.20;52.20
5192;DHT22;2615;44.524;11.284;2022-08-21T01:10:49;25.20;52.40
5192;DHT22;2615;44.524;11.284;2022-08-21T01:13:23;25.10;52.40
5192;DHT22;2615;44.524;11.284;2022-08-21T01:15:55;25.10;52.40
5192;DHT22;2615;44.524;11.284;2022-08-21T01:18:27;25.20;52.50
5192;DHT22;2615;44.524;11.284;2022-08-21T01:21:08;25.10;52.50
5192;DHT22;2615;44.524;11.284;2022-08-21T01:23:40;25.10;52.60
5192;DHT22;2615;44.524;11.284;2022-08-21T01:26:10;25.00;53.20
5192;DHT22;2615;44.524;11.284;2022-08-21T01:28:52;25.00;52.70
5192;DHT22;2615;44.524;11.284;2022-08-21T01:31:25;25.00;52.80
5192;DHT22;2615;44.524;11.284;2022-08-21T01:33:55;24.90;52.80
5192;DHT22;2615;44.524;11.284;2022-08-21T01:36:25;24.90;52.80
5192;DHT22;2615;44.524;11.284;2022-08-21T01:38:54;24.90;53.40
5192;DHT22;2615;44.524;11.284;2022-08-21T01:41:22;24.90;52.90
5192;DHT22;2615;44.524;11.284;2022-08-21T01:43:51;24.80;53.00
5192;DHT22;2615;44.524;11.284;2022-08-21T01:46:19;24.90;53.20
5192;DHT22;2615;44.524;11.284;2022-08-21T01:48:47;24.80;53.10
5192;DHT22;2615;44.524;11.284;2022-08-21T01:51:15;24.80;53.20
5192;DHT22;2615;44.524;11.284;2022-08-21T01:53:45;24.80;53.20
5192;DHT22;2615;44.524;11.284;2022-08-21T01:56:15;24.70;53.20
5192;DHT22;2615;44.524;11.284;2022-08-21T01:58:45;24.70;53.20
5192;DHT22;2615;44.524;11.284;2022-08-21T02:01:14;24.70;53.30
5192;DHT22;2615;44.524;11.284;2022-08-21T02:03:42;24.70;53.20
5192;DHT22;2615;44.524;11.284;2022-08-21T02:06:13;24.70;53.20
5192;DHT22;2615;44.524;11.284;2022-08-21T02:08:46;24.70;53.30
5192;DHT22;2615;44.524;11.284;2022-08-21T02:11:14;24.70;53.30
5192;DHT22;2615;44.524;11.284;2022-08-21T02:13:42;24.60;53.20
5192;DHT22;2615;44.524;11.284;2022-08-21T02:16:11;24.60;53.20
5192;DHT22;2615;44.524;11.284;2022-08-21T02:18:45;24.60;53.40
5192;DHT22;2615;44.524;11.284;2022-08-21T02:21:14;24.60;53.40
5192;DHT22;2615;44.524;11.284;2022-08-21T02:23:42;24.60;53.40
5192;DHT22;2615;44.524;11.284;2022-08-21T02:26:12;24.60;53.50
5192;DHT22;2615;44.524;11.284;2022-08-21T02:28:41;24.60;53.50
5192;DHT22;2615;44.524;11.284;2022-08-21T02:31:09;24.70;53.50
5192;DHT22;2615;44.524;11.284;2022-08-21T02:33:38;24.70;53.50
5192;DHT22;2615;44.524;11.284;2022-08-21T02:36:08;24.70;53.40
5192;DHT22;2615;44.524;11.284;2022-08-21T02:38:38;24.70;53.50
5192;DHT22;2615;44.524;11.284;2022-08-21T02:41:11;24.70;53.50
5192;DHT22;2615;44.524;11.284;2022-08-21T02:43:41;24.70;53.50
5192;DHT22;2615;44.524;11.284;2022-08-21T02:46:11;24.70;53.50
5192;DHT22;2615;44.524;11.284;2022-08-21T02:48:40;24.70;53.40
5192;DHT22;2615;44.524;11.284;2022-08-21T02:51:11;24.60;53.40
5192;DHT22;2615;44.524;11.284;2022-08-21T02:53:39;24.60;53.50
5192;DHT22;2615;44.524;11.284;2022-08-21T02:56:10;24.60;53.50
5192;DHT22;2615;44.524;11.284;2022-08-21T02:58:44;24.60;53.50
5192;DHT22;2615;44.524;11.284;2022-08-21T03:01:12;24.60;53.60
5192;DHT22;2615;44.524;11.284;2022-08-21T03:03:43;24.50;53.60
5192;DHT22;2615;44.524;11.284;2022-08-21T03:06:13;24.50;53.60
5192;DHT22;2615;44.524;11.284;2022-08-21T03:08:42;24.50;53.70
5192;DHT22;2615;44.524;11.284;2022-08-21T03:11:12;24.50;53.70
5192;DHT22;2615;44.524;11.284;2022-08-21T03:13:43;24.50;53.70
5192;DHT22;2615;44.524;11.284;2022-08-21T03:16:11;24.50;53.70
5192;DHT22;2615;44.524;11.284;2022-08-21T03:18:39;24.50;53.70
5192;DHT22;2615;44.524;11.284;2022-08-21T03:21:07;24.40;53.60
5192;DHT22;2615;44.524;11.284;2022-08-21T03:23:35;24.40;53.60
5192;DHT22;2615;44.524;11.284;2022-08-21T03:26:06;24.40;53.70
5192;DHT22;2615;44.524;11.284;2022-08-21T03:28:34;24.40;53.80
5192;DHT22;2615;44.524;11.284;2022-08-21T03:31:04;24.40;53.80
5192;DHT22;2615;44.524;11.284;2022-08-21T03:33:33;24.40;53.90
5192;DHT22;2615;44.524;11.284;2022-08-21T03:36:05;24.40;53.90
5192;DHT22;2615;44.524;11.284;2022-08-21T03:38:36;24.40;53.80
5192;DHT22;2615;44.524;11.284;2022-08-21T03:41:06;24.40;53.80
5192;DHT22;2615;44.524;11.284;2022-08-21T03:43:36;24.50;53.80
5192;DHT22;2615;44.524;11.284;2022-08-21T03:46:07;24.40;53.80
5192;DHT22;2615;44.524;11.284;2022-08-21T03:48:36;24.40;54.00
5192;DHT22;2615;44.524;11.284;2022-08-21T03:51:05;24.40;53.90
5192;DHT22;2615;44.524;11.284;2022-08-21T03:53:34;24.40;54.00
5192;DHT22;2615;44.524;11.284;2022-08-21T03:56:03;24.40;54.00
5192;DHT22;2615;44.524;11.284;2022-08-21T03:58:32;24.40;54.00
5192;DHT22;2615;44.524;11.284;2022-08-21T04:01:01;24.30;53.90
5192;DHT22;2615;44.524;11.284;2022-08-21T04:03:33;24.40;54.00
5192;DHT22;2615;44.524;11.284;2022-08-21T04:06:02;24.40;53.80
5192;DHT22;2615;44.524;11.284;2022-08-21T04:08:30;24.40;53.80
5192;DHT22;2615;44.524;11.284;2022-08-21T04:10:59;24.40;53.70
5192;DHT22;2615;44.524;11.284;2022-08-21T04:13:27;24.30;53.70
5192;DHT22;2615;44.524;11.284;2022-08-21T04:15:55;24.30;53.70
5192;DHT22;2615;44.524;11.284;2022-08-21T04:18:24;24.30;53.80
5192;DHT22;2615;44.524;11.284;2022-08-21T04:20:56;24.40;53.90
5192;DHT22;2615;44.524;11.284;2022-08-21T04:23:25;24.40;53.90
5192;DHT22;2615;44.524;11.284;2022-08-21T04:25:54;24.40;53.80
5192;DHT22;2615;44.524;11.284;2022-08-21T04:28:24;24.40;53.80
5192;DHT22;2615;44.524;11.284;2022-08-21T04:30:56;24.40;53.70
5192;DHT22;2615;44.524;11.284;2022-08-21T04:33:25;24.40;53.70
5192;DHT22;2615;44.524;11.284;2022-08-21T04:35:55;24.40;53.70
5192;DHT22;2615;44.524;11.284;2022-08-21T04:38:23;24.40;53.70
5192;DHT22;2615;44.524;11.284;2022-08-21T04:40:51;24.40;53.60
5192;DHT22;2615;44.524;11.284;2022-08-21T04:43:20;24.40;53.50
5192;DHT22;2615;44.524;11.284;2022-08-21T04:45:51;24.40;53.50
5192;DHT22;2615;44.524;11.284;2022-08-21T04:48:21;24.40;53.60
5192;DHT22;2615;44.524;11.284;2022-08-21T04:50:53;24.40;53.70
5192;DHT22;2615;44.524;11.284;2022-08-21T04:53:33;24.40;53.70
5192;DHT22;2615;44.524;11.284;2022-08-21T04:56:05;24.40;53.70
5192;DHT22;2615;44.524;11.284;2022-08-21T04:58:36;24.40;53.70
5192;DHT22;2615;44.524;11.284;2022-08-21T05:01:08;24.50;53.70
5192;DHT22;2615;44.524;11.284;2022-08-21T05:03:39;24.50;53.70
5192;DHT22;2615;44.524;11.284;2022-08-21T05:06:11;24.50;53.60
5192;DHT22;2615;44.524;11.284;2022-08-21T05:08:42;24.50;53.50
5192;DHT22;2615;44.524;11.284;2022-08-21T05:11:12;24.60;53.60
5192;DHT22;2615;44.524;11.284;2022-08-21T05:13:40;24.60;53.50
5192;DHT22;2615;44.524;11.284;2022-08-21T05:16:08;24.60;53.40
5192;DHT22;2615;44.524;11.284;2022-08-21T05:18:36;24.60;53.50
5192;DHT22;2615;44.524;11.284;2022-08-21T05:21:05;24.60;53.30
5192;DHT22;2615;44.524;11.284;2022-08-21T05:23:33;24.60;53.40
5192;DHT22;2615;44.524;11.284;2022-08-21T05:26:03;24.70;53.50
5192;DHT22;2615;44.524;11.284;2022-08-21T05:28:32;24.70;53.40
5192;DHT22;2615;44.524;11.284;2022-08-21T05:31:00;24.80;53.40
5192;DHT22;2615;44.524;11.284;2022-08-21T05:33:28;24.90;53.30
5192;DHT22;2615;44.524;11.284;2022-08-21T05:35:57;24.90;53.30
5192;DHT22;2615;44.524;11.284;2022-08-21T05:38:26;24.90;53.10
5192;DHT22;2615;44.524;11.284;2022-08-21T05:40:55;25.00;53.20
5192;DHT22;2615;44.524;11.284;2022-08-21T05:43:24;25.00;53.10
5192;DHT22;2615;44.524;11.284;2022-08-21T05:45:53;25.10;52.90
5192;DHT22;2615;44.524;11.284;2022-08-21T05:48:23;25.10;52.90
5192;DHT22;2615;44.524;11.284;2022-08-21T05:50:52;25.10;52.90
5192;DHT22;2615;44.524;11.284;2022-08-21T05:53:23;25.20;52.80
5192;DHT22;2615;44.524;11.284;2022-08-21T05:55:51;25.30;52.70
5192;DHT22;2615;44.524;11.284;2022-08-21T05:58:21;25.40;52.60
5192;DHT22;2615;44.524;11.284;2022-08-21T06:00:51;25.40;52.40
5192;DHT22;2615;44.524;11.284;2022-08-21T06:03:21;25.50;52.30
5192;DHT22;2615;44.524;11.284;2022-08-21T06:05:50;25.50;52.10
5192;DHT22;2615;44.524;11.284;2022-08-21T06:08:18;25.50;52.10
5192;DHT22;2615;44.524;11.284;2022-08-21T06:10:48;25.60;52.00
5192;DHT22;2615;44.524;11.284;2022-08-21T06:13:18;25.60;51.90
5192;DHT22;2615;44.524;11.284;2022-08-21T06:15:47;25.70;51.80
5192;DHT22;2615;44.524;11.284;2022-08-21T06:18:17;25.60;51.70
5192;DHT22;2615;44.524;11.284;2022-08-21T06:20:45;25.60;51.70
5192;DHT22;2615;44.524;11.284;2022-08-21T06:23:13;25.70;51.70
5192;DHT22;2615;44.524;11.284;2022-08-21T06:25:41;25.70;51.70
5192;DHT22;2615;44.524;11.284;2022-08-21T06:28:10;25.80;51.70
5192;DHT22;2615;44.524;11.284;2022-08-21T06:30:39;25.80;51.60
5192;DHT22;2615;44.524;11.284;2022-08-21T06:33:07;25.90;51.50
5192;DHT22;2615;44.524;11.284;2022-08-21T06:35:37;26.00;51.40
5192;DHT22;2615;44.524;11.284;2022-08-21T06:38:07;26.00;51.30
5192;DHT22;2615;44.524;11.284;2022-08-21T06:40:35;26.10;51.20
5192;DHT22;2615;44.524;11.284;2022-08-21T06:43:12;26.10;51.10
5192;DHT22;2615;44.524;11.284;2022-08-21T06:45:41;26.20;51.00
5192;DHT22;2615;44.524;11.284;2022-08-21T06:48:09;26.30;50.90
5192;DHT22;2615;44.524;11.284;2022-08-21T06:50:46;26.30;50.80
5192;DHT22;2615;44.524;11.284;2022-08-21T06:53:18;26.30;50.80
5192;DHT22;2615;44.524;11.284;2022-08-21T06:55:47;26.30;50.70
5192;DHT22;2615;44.524;11.284;2022-08-21T06:58:16;26.30;50.70
5192;DHT22;2615;44.524;11.284;2022-08-21T07:00:46;26.30;50.70
5192;DHT22;2615;44.524;11.284;2022-08-21T07:03:24;26.40;50.70
5192;DHT22;2615;44.524;11.284;2022-08-21T07:05:54;26.40;50.50
5192;DHT22;2615;44.524;11.284;2022-08-21T07:08:23;26.40;50.40
5192;DHT22;2615;44.524;11.284;2022-08-21T07:10:53;26.40;50.40
5192;DHT22;2615;44.524;11.284;2022-08-21T07:13:22;26.50;50.50
5192;DHT22;2615;44.524;11.284;2022-08-21T07:15:51;26.50;50.50
5192;DHT22;2615;44.524;11.284;2022-08-21T07:18:19;26.50;50.40
5192;DHT22;2615;44.524;11.284;2022-08-21T07:20:48;26.50;50.40
5192;DHT22;2615;44.524;11.284;2022-08-21T07:23:24;26.50;50.40
5192;DHT22;2615;44.524;11.284;2022-08-21T07:25:54;26.60;50.60
5192;DHT22;2615;44.524;11.284;2022-08-21T07:28:22;26.60;50.50
5192;DHT22;2615;44.524;11.284;2022-08-21T07:30:52;26.70;50.40
5192;DHT22;2615;44.524;11.284;2022-08-21T07:33:21;26.70;50.20
5192;DHT22;2615;44.524;11.284;2022-08-21T07:35:50;26.70;50.10
5192;DHT22;2615;44.524;11.284;2022-08-21T07:38:19;26.80;50.10
5192;DHT22;2615;44.524;11.284;2022-08-21T07:40:48;26.80;49.90
5192;DHT22;2615;44.524;11.284;2022-08-21T07:43:18;26.90;49.80
5192;DHT22;2615;44.524;11.284;2022-08-21T07:45:46;26.90;49.60
5192;DHT22;2615;44.524;11.284;2022-08-21T07:48:16;27.00;49.60
5192;DHT22;2615;44.524;11.284;2022-08-21T07:50:44;27.10;49.70
5192;DHT22;2615;44.524;11.284;2022-08-21T07:53:12;27.10;49.60
5192;DHT22;2615;44.524;11.284;2022-08-21T07:55:42;27.20;49.50
5192;DHT22;2615;44.524;11.284;2022-08-21T07:58:10;27.30;49.40
5192;DHT22;2615;44.524;11.284;2022-08-21T08:00:40;27.30;49.00
5192;DHT22;2615;44.524;11.284;2022-08-21T08:03:08;27.40;48.70
5192;DHT22;2615;44.524;11.284;2022-08-21T08:05:36;27.40;48.30
5192;DHT22;2615;44.524;11.284;2022-08-21T08:08:06;27.50;48.10
5192;DHT22;2615;44.524;11.284;2022-08-21T08:10:34;27.50;47.80
5192;DHT22;2615;44.524;11.284;2022-08-21T08:13:04;27.60;47.70
5192;DHT22;2615;44.524;11.284;2022-08-21T08:15:36;27.60;47.50
5192;DHT22;2615;44.524;11.284;2022-08-21T08:18:04;27.70;47.50
5192;DHT22;2615;44.524;11.284;2022-08-21T08:20:33;27.80;47.40
5192;DHT22;2615;44.524;11.284;2022-08-21T08:23:01;27.90;47.30
5192;DHT22;2615;44.524;11.284;2022-08-21T08:25:30;28.00;47.20
5192;DHT22;2615;44.524;11.284;2022-08-21T08:28:06;28.10;47.10
5192;DHT22;2615;44.524;11.284;2022-08-21T08:30:44;28.20;47.00
5192;DHT22;2615;44.524;11.284;2022-08-21T08:33:13;28.30;46.80
5192;DHT22;2615;44.524;11.284;2022-08-21T08:35:42;28.30;46.70
5192;DHT22;2615;44.524;11.284;2022-08-21T08:38:12;28.50;46.60
5192;DHT22;2615;44.524;11.284;2022-08-21T08:40:52;28.60;46.40
5192;DHT22;2615;44.524;11.284;2022-08-21T08:43:22;28.70;46.20
5192;DHT22;2615;44.524;11.284;2022-08-21T08:45:54;28.80;45.90
5192;DHT22;2615;44.524;11.284;2022-08-21T08:48:36;28.90;45.70
5192;DHT22;2615;44.524;11.284;2022-08-21T08:51:13;29.00;45.30
5192;DHT22;2615;44.524;11.284;2022-08-21T08:53:49;29.10;45.10
5192;DHT22;2615;44.524;11.284;2022-08-21T08:56:22;29.20;44.90
5192;DHT22;2615;44.524;11.284;2022-08-21T08:59:00;29.20;44.80
5192;DHT22;2615;44.524;11.284;2022-08-21T09:01:29;29.30;44.70
5192;DHT22;2615;44.524;11.284;2022-08-21T09:04:04;29.40;44.50
5192;DHT22;2615;44.524;11.284;2022-08-21T09:06:53;29.50;44.40
5192;DHT22;2615;44.524;11.284;2022-08-21T09:09:31;29.60;44.30
5192;DHT22;2615;44.524;11.284;2022-08-21T09:12:06;29.70;44.20
5192;DHT22;2615;44.524;11.284;2022-08-21T09:14:50;29.80;44.20
5192;DHT22;2615;44.524;11.284;2022-08-21T09:17:35;29.90;43.90
5192;DHT22;2615;44.524;11.284;2022-08-21T09:20:14;30.10;43.60
5192;DHT22;2615;44.524;11.284;2022-08-21T09:22:58;30.20;43.40
5192;DHT22;2615;44.524;11.284;2022-08-21T09:25:32;30.30;43.20
5192;DHT22;2615;44.524;11.284;2022-08-21T09:28:01;30.40;43.00
5192;DHT22;2615;44.524;11.284;2022-08-21T09:30:32;30.50;42.80
5192;DHT22;2615;44.524;11.284;2022-08-21T09:33:00;30.40;42.50
5192;DHT22;2615;44.524;11.284;2022-08-21T09:35:28;30.40;42.50
5192;DHT22;2615;44.524;11.284;2022-08-21T09:37:59;30.30;42.50
5192;DHT22;2615;44.524;11.284;2022-08-21T09:40:35;30.30;42.50
5192;DHT22;2615;44.524;11.284;2022-08-21T09:43:06;30.40;42.40
5192;DHT22;2615;44.524;11.284;2022-08-21T09:45:36;30.50;42.30
5192;DHT22;2615;44.524;11.284;2022-08-21T09:48:09;30.60;42.00
5192;DHT22;2615;44.524;11.284;2022-08-21T09:50:38;30.70;41.80
5192;DHT22;2615;44.524;11.284;2022-08-21T09:53:16;30.90;41.60
5192;DHT22;2615;44.524;11.284;2022-08-21T09:55:51;31.00;41.30
5192;DHT22;2615;44.524;11.284;2022-08-21T09:58:40;31.20;41.20
5192;DHT22;2615;44.524;11.284;2022-08-21T10:01:15;31.30;41.20
5192;DHT22;2615;44.524;11.284;2022-08-21T10:03:44;31.40;40.90
5192;DHT22;2615;44.524;11.284;2022-08-21T10:06:22;31.50;40.80
5192;DHT22;2615;44.524;11.284;2022-08-21T10:08:51;31.60;40.40
5192;DHT22;2615;44.524;11.284;2022-08-21T10:11:31;31.70;40.30
5192;DHT22;2615;44.524;11.284;2022-08-21T10:14:09;31.80;40.10
5192;DHT22;2615;44.524;11.284;2022-08-21T10:16:49;31.90;39.90
5192;DHT22;2615;44.524;11.284;2022-08-21T10:19:25;32.10;39.90
5192;DHT22;2615;44.524;11.284;2022-08-21T10:22:02;32.20;39.70
5192;DHT22;2615;44.524;11.284;2022-08-21T10:24:40;32.40;39.40
5192;DHT22;2615;44.524;11.284;2022-08-21T10:27:16;32.60;39.20
5192;DHT22;2615;44.524;11.284;2022-08-21T10:29:53;32.80;39.00
5192;DHT22;2615;44.524;11.284;2022-08-21T10:32:54;33.00;38.70
5192;DHT22;2615;44.524;11.284;2022-08-21T10:35:28;33.20;38.40
5192;DHT22;2615;44.524;11.284;2022-08-21T10:38:27;33.30;38.30
5192;DHT22;2615;44.524;11.284;2022-08-21T10:41:28;33.60;38.00
5192;DHT22;2615;44.524;11.284;2022-08-21T10:44:08;33.70;37.70
5192;DHT22;2615;44.524;11.284;2022-08-21T10:46:47;33.80;37.40
5192;DHT22;2615;44.524;11.284;2022-08-21T10:49:26;34.00;37.30
5192;DHT22;2615;44.524;11.284;2022-08-21T10:52:09;34.20;37.00
5192;DHT22;2615;44.524;11.284;2022-08-21T10:54:50;34.50;37.20
5192;DHT22;2615;44.524;11.284;2022-08-21T10:57:36;34.70;36.40
5192;DHT22;2615;44.524;11.284;2022-08-21T11:00:09;35.00;36.00
5192;DHT22;2615;44.524;11.284;2022-08-21T11:02:42;35.30;35.80
5192;DHT22;2615;44.524;11.284;2022-08-21T11:05:17;35.50;35.30
5192;DHT22;2615;44.524;11.284;2022-08-21T11:07:49;35.60;35.00
5192;DHT22;2615;44.524;11.284;2022-08-21T11:10:27;35.70;35.40
5192;DHT22;2615;44.524;11.284;2022-08-21T11:13:00;35.80;34.50
5192;DHT22;2615;44.524;11.284;2022-08-21T11:15:34;35.90;34.40
5192;DHT22;2615;44.524;11.284;2022-08-21T11:18:15;36.10;34.30
5192;DHT22;2615;44.524;11.284;2022-08-21T11:20:54;36.30;33.80
5192;DHT22;2615;44.524;11.284;2022-08-21T11:23:33;36.60;33.50
5192;DHT22;2615;44.524;11.284;2022-08-21T11:26:07;36.80;33.20
5192;DHT22;2615;44.524;11.284;2022-08-21T11:28:43;36.90;32.70
5192;DHT22;2615;44.524;11.284;2022-08-21T11:31:23;37.10;32.60
5192;DHT22;2615;44.524;11.284;2022-08-21T11:34:07;37.40;32.10
5192;DHT22;2615;44.524;11.284;2022-08-21T11:36:42;37.60;31.60
5192;DHT22;2615;44.524;11.284;2022-08-21T11:39:19;38.00;31.50
5192;DHT22;2615;44.524;11.284;2022-08-21T11:41:58;38.30;31.00
5192;DHT22;2615;44.524;11.284;2022-08-21T11:44:43;38.50;30.50
5192;DHT22;2615;44.524;11.284;2022-08-21T11:47:15;38.80;30.10
5192;DHT22;2615;44.524;11.284;2022-08-21T11:49:53;39.00;29.80
5192;DHT22;2615;44.524;11.284;2022-08-21T11:52:30;39.20;29.60
5192;DHT22;2615;44.524;11.284;2022-08-21T11:55:02;39.40;29.50
5192;DHT22;2615;44.524;11.284;2022-08-21T11:57:37;39.50;29.30
5192;DHT22;2615;44.524;11.284;2022-08-21T12:00:16;39.60;29.30
5192;DHT22;2615;44.524;11.284;2022-08-21T12:02:51;39.70;29.10
5192;DHT22;2615;44.524;11.284;2022-08-21T12:05:27;39.80;29.00
5192;DHT22;2615;44.524;11.284;2022-08-21T12:08:05;40.00;28.80
5192;DHT22;2615;44.524;11.284;2022-08-21T12:13:10;40.30;28.10
5192;DHT22;2615;44.524;11.284;2022-08-21T12:15:40;40.40;28.40
5192;DHT22;2615;44.524;11.284;2022-08-21T12:18:22;40.30;28.30
5192;DHT22;2615;44.524;11.284;2022-08-21T12:21:02;40.20;28.10
5192;DHT22;2615;44.524;11.284;2022-08-21T12:23:34;40.20;28.20
5192;DHT22;2615;44.524;11.284;2022-08-21T12:26:24;40.20;28.10
5192;DHT22;2615;44.524;11.284;2022-08-21T12:29:15;40.10;27.80
5192;DHT22;2615;44.524;11.284;2022-08-21T12:31:58;39.90;27.80
5192;DHT22;2615;44.524;11.284;2022-08-21T12:34:35;39.60;27.90
5192;DHT22;2615;44.524;11.284;2022-08-21T12:37:09;39.10;27.90
5192;DHT22;2615;44.524;11.284;2022-08-21T12:39:44;38.70;28.20
5192;DHT22;2615;44.524;11.284;2022-08-21T12:42:18;38.20;28.30
5192;DHT22;2615;44.524;11.284;2022-08-21T12:44:52;37.70;28.60
5192;DHT22;2615;44.524;11.284;2022-08-21T12:47:27;37.40;29.00
5192;DHT22;2615;44.524;11.284;2022-08-21T12:50:03;37.00;29.10
5192;DHT22;2615;44.524;11.284;2022-08-21T12:52:35;36.80;29.50
5192;DHT22;2615;44.524;11.284;2022-08-21T12:55:11;36.40;29.60
5192;DHT22;2615;44.524;11.284;2022-08-21T12:57:40;36.10;29.80
5192;DHT22;2615;44.524;11.284;2022-08-21T13:00:12;35.90;30.00
5192;DHT22;2615;44.524;11.284;2022-08-21T13:02:45;35.60;30.10
5192;DHT22;2615;44.524;11.284;2022-08-21T13:05:19;35.30;30.30
5192;DHT22;2615;44.524;11.284;2022-08-21T13:07:48;35.10;30.60
5192;DHT22;2615;44.524;11.284;2022-08-21T13:10:20;34.90;30.70
5192;DHT22;2615;44.524;11.284;2022-08-21T13:12:49;34.80;31.00
5192;DHT22;2615;44.524;11.284;2022-08-21T13:15:25;34.60;31.20
5192;DHT22;2615;44.524;11.284;2022-08-21T13:18:00;34.40;31.40
5192;DHT22;2615;44.524;11.284;2022-08-21T13:20:32;34.20;31.70
5192;DHT22;2615;44.524;11.284;2022-08-21T13:23:01;34.00;31.90
5192;DHT22;2615;44.524;11.284;2022-08-21T13:25:36;33.80;32.10
5192;DHT22;2615;44.524;11.284;2022-08-21T13:28:06;33.80;32.10
5192;DHT22;2615;44.524;11.284;2022-08-21T13:30:39;33.70;32.10
5192;DHT22;2615;44.524;11.284;2022-08-21T13:33:11;33.60;32.20
5192;DHT22;2615;44.524;11.284;2022-08-21T13:35:48;33.50;32.20
5192;DHT22;2615;44.524;11.284;2022-08-21T13:38:25;33.50;32.60
5192;DHT22;2615;44.524;11.284;2022-08-21T13:41:03;33.40;32.70
5192;DHT22;2615;44.524;11.284;2022-08-21T13:43:34;33.40;33.00
5192;DHT22;2615;44.524;11.284;2022-08-21T13:46:07;33.30;32.90
5192;DHT22;2615;44.524;11.284;2022-08-21T13:48:37;33.30;33.00
5192;DHT22;2615;44.524;11.284;2022-08-21T13:51:06;33.30;33.00
5192;DHT22;2615;44.524;11.284;2022-08-21T13:53:36;33.20;32.90
5192;DHT22;2615;44.524;11.284;2022-08-21T13:56:23;33.20;33.10
5192;DHT22;2615;44.524;11.284;2022-08-21T13:58:55;33.10;33.00
5192;DHT22;2615;44.524;11.284;2022-08-21T14:01:27;33.00;33.10
5192;DHT22;2615;44.524;11.284;2022-08-21T14:04:03;32.90;33.20
5192;DHT22;2615;44.524;11.284;2022-08-21T14:06:35;32.90;33.30
5192;DHT22;2615;44.524;11.284;2022-08-21T14:09:09;32.80;33.30
5192;DHT22;2615;44.524;11.284;2022-08-21T14:11:40;32.80;33.40
5192;DHT22;2615;44.524;11.284;2022-08-21T14:14:16;32.80;33.50
5192;DHT22;2615;44.524;11.284;2022-08-21T14:16:58;32.80;33.70
5192;DHT22;2615;44.524;11.284;2022-08-21T14:19:46;32.70;33.60
5192;DHT22;2615;44.524;11.284;2022-08-21T14:22:39;32.60;33.70
5192;DHT22;2615;44.524;11.284;2022-08-21T14:25:13;32.60;33.80
5192;DHT22;2615;44.524;11.284;2022-08-21T14:27:48;32.50;33.70
5192;DHT22;2615;44.524;11.284;2022-08-21T14:30:21;32.50;33.70
5192;DHT22;2615;44.524;11.284;2022-08-21T14:32:50;32.40;33.70
5192;DHT22;2615;44.524;11.284;2022-08-21T14:35:19;32.40;33.60
5192;DHT22;2615;44.524;11.284;2022-08-21T14:37:50;32.40;33.60
5192;DHT22;2615;44.524;11.284;2022-08-21T14:40:20;32.40;33.60
5192;DHT22;2615;44.524;11.284;2022-08-21T14:42:51;32.40;33.70
5192;DHT22;2615;44.524;11.284;2022-08-21T14:45:25;32.40;33.80
5192;DHT22;2615;44.524;11.284;2022-08-21T14:47:54;32.40;34.00
5192;DHT22;2615;44.524;11.284;2022-08-21T14:50:22;32.30;34.20
5192;DHT22;2615;44.524;11.284;2022-08-21T14:52:54;32.20;34.30
5192;DHT22;2615;44.524;11.284;2022-08-21T14:55:23;32.20;34.50
5192;DHT22;2615;44.524;11.284;2022-08-21T14:57:54;32.20;34.60
5192;DHT22;2615;44.524;11.284;2022-08-21T15:00:24;32.20;34.60
5192;DHT22;2615;44.524;11.284;2022-08-21T15:03:02;32.20;34.60
5192;DHT22;2615;44.524;11.284;2022-08-21T15:05:30;32.20;34.70
5192;DHT22;2615;44.524;11.284;2022-08-21T15:08:00;32.10;34.80
5192;DHT22;2615;44.524;11.284;2022-08-21T15:10:33;32.10;34.90
5192;DHT22;2615;44.524;11.284;2022-08-21T15:13:19;32.10;35.00
5192;DHT22;2615;44.524;11.284;2022-08-21T15:15:49;32.00;35.00
5192;DHT22;2615;44.524;11.284;2022-08-21T15:18:19;32.00;34.90
5192;DHT22;2615;44.524;11.284;2022-08-21T15:20:48;32.00;34.80
5192;DHT22;2615;44.524;11.284;2022-08-21T15:23:16;32.00;34.80
5192;DHT22;2615;44.524;11.284;2022-08-21T15:25:46;32.00;35.00
5192;DHT22;2615;44.524;11.284;2022-08-21T15:28:16;32.00;35.00
5192;DHT22;2615;44.524;11.284;2022-08-21T15:30:47;32.00;35.10
5192;DHT22;2615;44.524;11.284;2022-08-21T15:33:15;32.00;35.20
5192;DHT22;2615;44.524;11.284;2022-08-21T15:35:44;32.00;35.30
5192;DHT22;2615;44.524;11.284;2022-08-21T15:38:14;32.00;35.30
5192;DHT22;2615;44.524;11.284;2022-08-21T15:40:43;32.00;35.20
5192;DHT22;2615;44.524;11.284;2022-08-21T15:43:23;32.00;35.20
5192;DHT22;2615;44.524;11.284;2022-08-21T15:45:58;32.00;35.30
5192;DHT22;2615;44.524;11.284;2022-08-21T15:48:27;32.00;35.20
5192;DHT22;2615;44.524;11.284;2022-08-21T15:50:55;31.90;35.20
5192;DHT22;2615;44.524;11.284;2022-08-21T15:53:23;31.90;35.20
5192;DHT22;2615;44.524;11.284;2022-08-21T15:55:51;31.90;35.00
5192;DHT22;2615;44.524;11.284;2022-08-21T15:58:21;31.90;34.90
5192;DHT22;2615;44.524;11.284;2022-08-21T16:00:50;31.90;34.90
5192;DHT22;2615;44.524;11.284;2022-08-21T16:03:19;31.80;35.00
5192;DHT22;2615;44.524;11.284;2022-08-21T16:05:48;31.80;35.00
5192;DHT22;2615;44.524;11.284;2022-08-21T16:08:19;31.80;35.10
5192;DHT22;2615;44.524;11.284;2022-08-21T16:10:47;31.80;35.20
5192;DHT22;2615;44.524;11.284;2022-08-21T16:13:18;31.80;35.30
5192;DHT22;2615;44.524;11.284;2022-08-21T16:15:49;31.80;35.30
5192;DHT22;2615;44.524;11.284;2022-08-21T16:18:20;31.80;35.30